Time;durP1;ratioP1;P1;durP2;ratioP2;P2;SDS_P1;SDS_P2;PMS_P1;PMS_P2;Temp;Humidity;BMP_temperature;BMP_pressure;BME280_temperature;BME280_humidity;BME280_pressure;Samples;Min_cycle;Max_cycle;Signal;HPM_P1;HPM_P2
2023/09/06 00:01:16;;;;;;;3.63;2.53;;;;;;;;;;6226670;28;20042;-80
2023/09/06 00:04:17;;;;;;;5.40;3.40;;;;;;;;;;6205648;28;20062;-78
2023/09/06 00:07:19;;;;;;;5.85;2.53;;;;;;;;;;6206897;28;20102;-77
2023/09/06 00:10:21;;;;;;;5.63;2.70;;;;;;;;;;6197762;28;20046;-80
2023/09/06 00:13:23;;;;;;;6.22;2.67;;;;;;;;;;6207694;28;20057;-79
2023/09/06 00:16:24;;;;;;;3.13;2.30;;;;;;;;;;6197802;28;20096;-77
2023/09/06 00:19:26;;;;;;;2.88;2.30;;;;;;;;;;6193497;28;20129;-76
2023/09/06 00:22:27;;;;;;;4.22;2.58;;;;;;;;;;6195195;28;20124;-79
2023/09/06 00:25:31;;;;;;;5.00;2.58;;;;;;;;;;6213033;28;20054;-78
2023/09/06 00:28:32;;;;;;;3.78;2.42;;;;;;;;;;6214948;28;20046;-77
2023/09/06 00:31:35;;;;;;;7.05;2.55;;;;;;;;;;6199083;28;20046;-78
2023/09/06 00:34:37;;;;;;;4.85;2.25;;;;;;;;;;6195994;28;20136;-79
2023/09/06 00:37:40;;;;;;;4.45;2.25;;;;;;;;;;6197840;28;20042;-79
2023/09/06 00:40:41;;;;;;;4.45;2.28;;;;;;;;;;6207052;28;20130;-78
2023/09/06 00:43:43;;;;;;;4.65;2.40;;;;;;;;;;6215220;28;20050;-79
2023/09/06 00:46:45;;;;;;;3.60;2.30;;;;;;;;;;6207129;28;20454;-77
2023/09/06 00:49:47;;;;;;;6.05;2.53;;;;;;;;;;6225223;28;20049;-78
2023/09/06 00:52:51;;;;;;;3.25;2.45;;;;;;;;;;6220093;28;20060;-78
2023/09/06 00:55:53;;;;;;;2.53;2.13;;;;;;;;;;6204033;28;20050;-77
2023/09/06 00:58:54;;;;;;;2.53;2.20;;;;;;;;;;6179310;28;20051;-78
2023/09/06 01:01:57;;;;;;;6.85;2.17;;;;;;;;;;6218424;28;20046;-80
2023/09/06 01:04:59;;;;;;;3.17;2.25;;;;;;;;;;6226533;28;20050;-78
2023/09/06 01:08:05;;;;;;;3.55;2.15;;;;;;;;;;6211572;28;20046;-79
2023/09/06 01:11:23;;;;;;;3.58;2.03;;;;;;;;;;6214558;28;20068;-78
2023/09/06 01:14:25;;;;;;;4.78;2.60;;;;;;;;;;6206166;28;20042;-78
2023/09/06 01:17:28;;;;;;;2.95;2.20;;;;;;;;;;6216833;28;20053;-78
2023/09/06 01:20:33;;;;;;;3.78;2.40;;;;;;;;;;6215050;28;20072;-78
2023/09/06 01:23:38;;;;;;;6.63;2.50;;;;;;;;;;6217561;28;20058;-80
2023/09/06 01:26:39;;;;;;;3.80;2.75;;;;;;;;;;6208949;28;20046;-79
2023/09/06 01:29:41;;;;;;;5.30;2.30;;;;;;;;;;6187670;28;20046;-77
2023/09/06 01:32:43;;;;;;;5.72;2.45;;;;;;;;;;6185998;28;20250;-80
2023/09/06 01:35:44;;;;;;;4.50;2.55;;;;;;;;;;6197344;28;20046;-78
2023/09/06 01:38:51;;;;;;;3.78;2.35;;;;;;;;;;6214091;28;20042;-79
2023/09/06 01:41:53;;;;;;;3.28;2.25;;;;;;;;;;6175031;28;20516;-81
2023/09/06 01:44:55;;;;;;;4.82;2.00;;;;;;;;;;6220625;28;20173;-77
2023/09/06 01:47:57;;;;;;;3.38;2.45;;;;;;;;;;6213444;28;20097;-79
2023/09/06 01:50:59;;;;;;;2.90;2.00;;;;;;;;;;6234388;28;20112;-80
2023/09/06 01:54:04;;;;;;;2.95;2.13;;;;;;;;;;6217576;28;20045;-81
2023/09/06 01:57:06;;;;;;;2.83;2.30;;;;;;;;;;6211547;28;20046;-80
2023/09/06 02:03:28;;;;;;;3.25;2.42;;;;;;;;;;6196791;28;20057;-81
2023/09/06 02:06:30;;;;;;;8.73;2.78;;;;;;;;;;6227642;28;20515;-80
2023/09/06 02:09:31;;;;;;;3.05;2.33;;;;;;;;;;6203438;28;20053;-81
2023/09/06 02:12:35;;;;;;;3.72;2.40;;;;;;;;;;6193887;28;20086;-77
2023/09/06 02:15:37;;;;;;;4.22;2.40;;;;;;;;;;6194068;28;20058;-76
2023/09/06 02:18:39;;;;;;;4.43;2.22;;;;;;;;;;6198073;28;20057;-78
2023/09/06 02:21:40;;;;;;;3.20;2.40;;;;;;;;;;6214420;28;20135;-80
2023/09/06 02:24:42;;;;;;;4.18;2.35;;;;;;;;;;6206261;28;20147;-78
2023/09/06 02:27:44;;;;;;;3.78;2.85;;;;;;;;;;6192856;28;20038;-77
2023/09/06 02:30:46;;;;;;;2.88;2.22;;;;;;;;;;6198350;28;20073;-77
2023/09/06 02:33:48;;;;;;;2.53;2.33;;;;;;;;;;6192670;28;20046;-79
2023/09/06 02:36:50;;;;;;;2.88;2.35;;;;;;;;;;6226504;28;20088;-78
2023/09/06 02:39:52;;;;;;;2.92;2.30;;;;;;;;;;6189858;28;20061;-79
2023/09/06 02:42:54;;;;;;;4.55;2.08;;;;;;;;;;6221636;28;20045;-80
2023/09/06 02:46:02;;;;;;;2.63;2.38;;;;;;;;;;6215000;28;20057;-77
2023/09/06 02:49:11;;;;;;;4.00;2.50;;;;;;;;;;6211347;28;20042;-77
2023/09/06 02:52:28;;;;;;;4.38;2.25;;;;;;;;;;6188860;28;20049;-79
2023/09/06 02:55:35;;;;;;;4.20;2.33;;;;;;;;;;6185975;28;20427;-79
2023/09/06 02:58:37;;;;;;;3.13;2.40;;;;;;;;;;6188184;28;20428;-76
2023/09/06 03:01:44;;;;;;;2.92;2.25;;;;;;;;;;6180984;28;20046;-77
2023/09/06 03:05:03;;;;;;;4.90;2.30;;;;;;;;;;6218045;28;20420;-79
2023/09/06 03:08:08;;;;;;;3.78;2.30;;;;;;;;;;6191229;28;21993;-79
2023/09/06 03:11:14;;;;;;;3.38;3.08;;;;;;;;;;6187689;28;20057;-78
2023/09/06 03:14:22;;;;;;;3.22;2.60;;;;;;;;;;6192456;28;20057;-78
2023/09/06 03:17:24;;;;;;;3.47;2.53;;;;;;;;;;6208582;28;20043;-79
2023/09/06 03:20:44;;;;;;;4.30;2.40;;;;;;;;;;6199626;28;20148;-78
2023/09/06 03:23:59;;;;;;;4.13;2.40;;;;;;;;;;6213632;28;20281;-78
2023/09/06 03:27:07;;;;;;;4.00;2.30;;;;;;;;;;6202768;28;20046;-81
2023/09/06 03:30:15;;;;;;;3.13;2.10;;;;;;;;;;6203708;28;20543;-80
2023/09/06 03:33:22;;;;;;;2.78;2.22;;;;;;;;;;6196427;28;20259;-78
2023/09/06 03:36:24;;;;;;;6.20;2.30;;;;;;;;;;6216457;28;20209;-79
2023/09/06 03:39:29;;;;;;;3.47;2.20;;;;;;;;;;6206188;28;20042;-79
2023/09/06 03:42:34;;;;;;;4.22;2.05;;;;;;;;;;6207825;28;20121;-78
2023/09/06 03:45:36;;;;;;;3.15;2.03;;;;;;;;;;6216255;28;20042;-77
2023/09/06 03:48:38;;;;;;;3.40;2.15;;;;;;;;;;6211559;28;20057;-77
2023/09/06 03:51:39;;;;;;;3.15;2.15;;;;;;;;;;6195187;28;20061;-79
2023/09/06 03:54:42;;;;;;;3.15;2.40;;;;;;;;;;6211220;28;20046;-79
2023/09/06 03:57:44;;;;;;;3.10;2.45;;;;;;;;;;6212857;28;20068;-77
2023/09/06 04:00:47;;;;;;;6.47;2.70;;;;;;;;;;6206851;28;20396;-80
2023/09/06 04:04:00;;;;;;;3.72;2.55;;;;;;;;;;6213073;28;20042;-77
2023/09/06 04:07:03;;;;;;;3.65;2.70;;;;;;;;;;6206127;28;20053;-79
2023/09/06 04:10:16;;;;;;;5.35;2.45;;;;;;;;;;6211511;28;20042;-78
2023/09/06 04:13:17;;;;;;;6.63;2.50;;;;;;;;;;6210211;28;20058;-78
2023/09/06 04:16:22;;;;;;;4.85;2.90;;;;;;;;;;6210106;28;20035;-78
2023/09/06 04:19:25;;;;;;;5.90;4.28;;;;;;;;;;6232655;28;20267;-78
2023/09/06 04:22:26;;;;;;;8.40;4.68;;;;;;;;;;6211715;28;20069;-80
2023/09/06 04:25:34;;;;;;;6.25;3.58;;;;;;;;;;6211510;28;20074;-78
2023/09/06 04:28:35;;;;;;;5.00;3.67;;;;;;;;;;6219073;28;20128;-81
2023/09/06 04:31:41;;;;;;;5.28;2.95;;;;;;;;;;6196285;28;20046;-77
2023/09/06 04:34:44;;;;;;;6.65;3.30;;;;;;;;;;6209068;28;20046;-78
2023/09/06 04:37:45;;;;;;;6.63;3.70;;;;;;;;;;6206170;28;20069;-78
2023/09/06 04:40:51;;;;;;;6.75;3.53;;;;;;;;;;6219120;28;20811;-78
2023/09/06 04:43:55;;;;;;;5.22;3.58;;;;;;;;;;6216163;28;20049;-77
2023/09/06 04:46:57;;;;;;;5.45;3.38;;;;;;;;;;6217724;28;20050;-80
2023/09/06 04:49:58;;;;;;;6.57;3.10;;;;;;;;;;6220268;28;20069;-79
2023/09/06 04:53:00;;;;;;;7.20;3.25;;;;;;;;;;6220725;28;20053;-80
2023/09/06 04:56:05;;;;;;;13.48;4.28;;;;;;;;;;6218862;28;20045;-79
2023/09/06 04:59:13;;;;;;;7.22;3.13;;;;;;;;;;6219011;28;20046;-80
2023/09/06 05:02:15;;;;;;;4.82;3.30;;;;;;;;;;6222640;28;20053;-77
2023/09/06 05:05:18;;;;;;;5.32;2.92;;;;;;;;;;6221469;28;20053;-80
2023/09/06 05:08:20;;;;;;;3.90;2.78;;;;;;;;;;6219633;28;20050;-80
2023/09/06 05:11:22;;;;;;;6.60;2.88;;;;;;;;;;6218107;28;20093;-76
2023/09/06 05:14:25;;;;;;;4.78;2.88;;;;;;;;;;6220892;28;20050;-76
2023/09/06 05:17:27;;;;;;;6.95;2.65;;;;;;;;;;6218015;28;20470;-80
2023/09/06 05:20:39;;;;;;;4.18;2.53;;;;;;;;;;6217236;28;20508;-80
2023/09/06 05:23:45;;;;;;;4.97;2.05;;;;;;;;;;6222232;28;21158;-78
2023/09/06 05:26:47;;;;;;;6.95;2.60;;;;;;;;;;6220452;28;20045;-79
2023/09/06 05:29:49;;;;;;;4.60;2.55;;;;;;;;;;6215095;28;20058;-77
2023/09/06 05:32:52;;;;;;;5.03;3.00;;;;;;;;;;6192343;28;20464;-78
2023/09/06 05:35:56;;;;;;;5.35;2.92;;;;;;;;;;6213058;28;20110;-79
2023/09/06 05:38:58;;;;;;;5.70;2.47;;;;;;;;;;6189604;28;20415;-79
2023/09/06 05:42:00;;;;;;;5.43;2.90;;;;;;;;;;6200045;28;20037;-79
2023/09/06 05:45:05;;;;;;;7.15;2.88;;;;;;;;;;6203623;28;20054;-79
2023/09/06 05:48:07;;;;;;;5.30;3.08;;;;;;;;;;6214044;28;20046;-80
2023/09/06 05:51:13;;;;;;;5.45;2.60;;;;;;;;;;6230769;28;20053;-80
2023/09/06 05:54:15;;;;;;;5.03;2.58;;;;;;;;;;6210806;28;20046;-77
2023/09/06 05:57:18;;;;;;;3.78;2.72;;;;;;;;;;6223690;28;20496;-77
2023/09/06 06:00:21;;;;;;;4.38;2.50;;;;;;;;;;6192461;28;20046;-77
2023/09/06 06:03:27;;;;;;;3.70;2.50;;;;;;;;;;6191698;28;20231;-78
2023/09/06 06:06:29;;;;;;;6.45;2.83;;;;;;;;;;6213459;28;20426;-78
2023/09/06 06:09:30;;;;;;;6.38;2.72;;;;;;;;;;6205089;28;20081;-79
2023/09/06 06:12:32;;;;;;;3.85;2.65;;;;;;;;;;6218941;28;20041;-79
2023/09/06 06:15:34;;;;;;;3.78;2.50;;;;;;;;;;6232580;28;20050;-78
2023/09/06 06:18:36;;;;;;;4.28;2.65;;;;;;;;;;6204070;28;20096;-77
2023/09/06 06:21:39;;;;;;;2.90;2.60;;;;;;;;;;6226976;28;20060;-78
2023/09/06 06:24:44;;;;;;;3.70;2.90;;;;;;;;;;6217347;28;20038;-77
2023/09/06 06:27:46;;;;;;;2.88;2.58;;;;;;;;;;6218198;28;20061;-78
2023/09/06 06:30:48;;;;;;;3.78;2.53;;;;;;;;;;6213516;28;20046;-79
2023/09/06 06:33:50;;;;;;;3.17;2.30;;;;;;;;;;6221277;28;20053;-79
2023/09/06 06:36:52;;;;;;;5.20;2.53;;;;;;;;;;6213962;28;20061;-79
2023/09/06 06:39:54;;;;;;;4.30;2.78;;;;;;;;;;6224273;28;20042;-79
2023/09/06 06:42:56;;;;;;;4.35;2.60;;;;;;;;;;6229323;28;20061;-79
2023/09/06 06:45:58;;;;;;;4.70;2.50;;;;;;;;;;6220467;28;20061;-79
2023/09/06 06:49:02;;;;;;;3.15;2.50;;;;;;;;;;6205129;28;20078;-77
2023/09/06 06:52:04;;;;;;;3.05;2.50;;;;;;;;;;6200891;28;20039;-76
2023/09/06 06:55:06;;;;;;;4.88;2.63;;;;;;;;;;6205076;28;20053;-78
2023/09/06 06:58:07;;;;;;;4.38;2.70;;;;;;;;;;6208451;28;20118;-80
2023/09/06 07:01:09;;;;;;;5.28;2.63;;;;;;;;;;6212825;28;20499;-78
2023/09/06 07:04:11;;;;;;;4.90;3.05;;;;;;;;;;6227793;28;20458;-78
2023/09/06 07:07:13;;;;;;;8.45;3.00;;;;;;;;;;6212733;28;20057;-79
2023/09/06 07:10:15;;;;;;;12.68;3.65;;;;;;;;;;6213433;28;20052;-80
2023/09/06 07:13:16;;;;;;;9.05;2.78;;;;;;;;;;6212669;28;20039;-79
2023/09/06 07:16:19;;;;;;;17.10;4.20;;;;;;;;;;6218251;28;20046;-78
2023/09/06 07:19:23;;;;;;;13.18;3.90;;;;;;;;;;6219306;28;20046;-79
2023/09/06 07:22:25;;;;;;;14.50;4.30;;;;;;;;;;6216454;28;20038;-80
2023/09/06 07:25:27;;;;;;;12.40;3.20;;;;;;;;;;6225554;28;20046;-80
2023/09/06 07:28:41;;;;;;;8.52;3.38;;;;;;;;;;6215649;28;20088;-79
2023/09/06 07:31:42;;;;;;;;;;;;;;;;;;6213855;28;20072;-79
2023/09/06 07:34:44;;;;;;;9.50;3.20;;;;;;;;;;6218119;28;19921;-79
2023/09/06 07:37:46;;;;;;;12.38;3.85;;;;;;;;;;6216314;28;20086;-80
2023/09/06 07:40:59;;;;;;;8.75;3.17;;;;;;;;;;6210354;28;20050;-78
2023/09/06 07:44:00;;;;;;;13.13;3.53;;;;;;;;;;6202378;28;20120;-78
2023/09/06 07:47:02;;;;;;;8.32;3.10;;;;;;;;;;6200206;28;20093;-81
2023/09/06 07:50:05;;;;;;;7.50;3.27;;;;;;;;;;6218103;28;20046;-78
2023/09/06 07:53:07;;;;;;;11.68;3.45;;;;;;;;;;6212292;28;20038;-78
2023/09/06 07:56:08;;;;;;;13.10;3.92;;;;;;;;;;6215044;28;20050;-78
2023/09/06 07:59:10;;;;;;;10.18;3.78;;;;;;;;;;6224705;28;20056;-81
2023/09/06 08:02:12;;;;;;;10.57;3.45;;;;;;;;;;6222263;28;20310;-79
2023/09/06 08:05:14;;;;;;;8.52;3.25;;;;;;;;;;6221117;28;20555;-80
2023/09/06 08:08:16;;;;;;;12.70;3.50;;;;;;;;;;6220787;28;20042;-81
2023/09/06 08:11:18;;;;;;;10.55;3.60;;;;;;;;;;6216873;28;20045;-80
2023/09/06 08:14:20;;;;;;;10.23;3.57;;;;;;;;;;6223171;28;20057;-81
2023/09/06 08:17:21;;;;;;;8.27;3.55;;;;;;;;;;6217843;28;20053;-80
2023/09/06 08:20:23;;;;;;;7.65;3.38;;;;;;;;;;6229448;28;20088;-81
2023/09/06 08:23:25;;;;;;;8.70;3.97;;;;;;;;;;6217835;28;20090;-81
2023/09/06 08:26:27;;;;;;;4.15;3.25;;;;;;;;;;6200443;28;20086;-79
2023/09/06 08:29:28;;;;;;;6.97;3.40;;;;;;;;;;6201654;28;20074;-81
2023/09/06 08:32:30;;;;;;;4.35;3.15;;;;;;;;;;6200818;28;20555;-80
2023/09/06 08:35:32;;;;;;;4.77;3.00;;;;;;;;;;6214804;28;20069;-80
2023/09/06 08:38:34;;;;;;;6.78;3.47;;;;;;;;;;6209165;28;20045;-81
2023/09/06 08:41:36;;;;;;;7.37;3.67;;;;;;;;;;6224164;28;20042;-79
2023/09/06 08:44:39;;;;;;;4.95;3.40;;;;;;;;;;6220639;28;20412;-80
2023/09/06 08:47:41;;;;;;;3.80;3.17;;;;;;;;;;6214180;28;20046;-79
2023/09/06 08:50:45;;;;;;;4.00;3.22;;;;;;;;;;6219595;28;20042;-79
2023/09/06 08:53:48;;;;;;;4.32;3.03;;;;;;;;;;6229734;28;20046;-81
2023/09/06 08:56:50;;;;;;;;;;;;;;;;;;6230535;28;20049;-80
2023/09/06 08:59:53;;;;;;;3.95;2.80;;;;;;;;;;6210298;28;19926;-79
2023/09/06 09:02:54;;;;;;;5.75;3.55;;;;;;;;;;6227397;28;20056;-80
2023/09/06 09:05:59;;;;;;;4.05;3.05;;;;;;;;;;6221946;28;20518;-80
2023/09/06 09:09:17;;;;;;;4.40;3.63;;;;;;;;;;6211903;28;20050;-79
2023/09/06 09:12:23;;;;;;;3.47;3.17;;;;;;;;;;6217687;28;20089;-80
2023/09/06 09:15:25;;;;;;;4.45;3.30;;;;;;;;;;6223271;28;20559;-79
2023/09/06 09:18:31;;;;;;;3.65;3.00;;;;;;;;;;6215473;28;20117;-81
2023/09/06 09:21:40;;;;;;;4.07;3.35;;;;;;;;;;6202044;28;20073;-81
2023/09/06 09:24:42;;;;;;;4.03;3.25;;;;;;;;;;6190306;28;20053;-81
2023/09/06 09:27:51;;;;;;;3.85;3.33;;;;;;;;;;6216879;28;20579;-79
2023/09/06 09:30:53;;;;;;;4.70;3.20;;;;;;;;;;6211247;28;20050;-81
2023/09/06 09:33:55;;;;;;;;;;;;;;;;;;6212632;28;20054;-82
2023/09/06 09:36:57;;;;;;;4.45;3.30;;;;;;;;;;6207481;28;19926;-79
2023/09/06 09:39:58;;;;;;;6.20;3.22;;;;;;;;;;6198938;28;20038;-78
2023/09/06 09:43:04;;;;;;;4.38;3.17;;;;;;;;;;6230738;28;20530;-78
2023/09/06 09:46:07;;;;;;;6.47;3.70;;;;;;;;;;6205422;28;20052;-80
2023/09/06 09:49:10;;;;;;;3.40;3.10;;;;;;;;;;6214279;28;20046;-80
2023/09/06 09:52:14;;;;;;;4.10;3.65;;;;;;;;;;6191132;28;20086;-79
2023/09/06 09:55:20;;;;;;;4.53;3.13;;;;;;;;;;6198643;28;20046;-80
2023/09/06 09:58:22;;;;;;;4.95;3.25;;;;;;;;;;6209721;28;20069;-80
2023/09/06 10:01:24;;;;;;;4.22;3.20;;;;;;;;;;6208522;28;20057;-76
2023/09/06 10:04:29;;;;;;;3.20;2.90;;;;;;;;;;6204710;28;20053;-76
2023/09/06 10:07:33;;;;;;;5.43;3.50;;;;;;;;;;6201901;28;20046;-78
2023/09/06 10:10:50;;;;;;;5.55;3.00;;;;;;;;;;6218780;28;20128;-77
2023/09/06 10:13:53;;;;;;;3.20;2.88;;;;;;;;;;6201899;28;20220;-79
2023/09/06 10:16:58;;;;;;;3.95;3.25;;;;;;;;;;6218216;28;20050;-80
2023/09/06 10:20:00;;;;;;;;;;;;;;;;;;6211877;28;20045;-81
2023/09/06 10:23:05;;;;;;;5.38;3.10;;;;;;;;;;6209367;28;19925;-79
2023/09/06 10:26:08;;;;;;;2.92;2.63;;;;;;;;;;6201451;28;20085;-79
2023/09/06 10:29:10;;;;;;;3.53;3.10;;;;;;;;;;6210120;28;20076;-78
2023/09/06 10:32:12;;;;;;;4.13;3.60;;;;;;;;;;6209388;28;20042;-80
2023/09/06 10:35:29;;;;;;;3.40;3.10;;;;;;;;;;6201352;28;20072;-80
2023/09/06 10:38:35;;;;;;;4.32;3.45;;;;;;;;;;6208388;28;20046;-80
2023/09/06 10:41:37;;;;;;;3.45;3.15;;;;;;;;;;6212661;28;20129;-81
2023/09/06 10:44:53;;;;;;;4.88;3.35;;;;;;;;;;6214473;28;20046;-80
2023/09/06 10:48:09;;;;;;;4.30;3.30;;;;;;;;;;6221181;28;20050;-80
2023/09/06 10:51:13;;;;;;;3.60;3.22;;;;;;;;;;6205657;28;20133;-79
2023/09/06 10:54:17;;;;;;;4.10;3.70;;;;;;;;;;6212554;28;20057;-76
2023/09/06 10:57:19;;;;;;;4.95;3.40;;;;;;;;;;6221685;28;20069;-79
2023/09/06 11:00:30;;;;;;;4.18;3.33;;;;;;;;;;6208780;28;20148;-79
2023/09/06 11:03:32;;;;;;;3.72;3.30;;;;;;;;;;6208441;28;20056;-79
2023/09/06 11:07:10;;;;;;;5.40;3.90;;;;;;;;;;6206228;28;20046;-78
2023/09/06 11:10:12;;;;;;;4.45;3.30;;;;;;;;;;6204344;28;20046;-78
2023/09/06 11:13:18;;;;;;;5.03;3.50;;;;;;;;;;6206332;28;20057;-78
2023/09/06 11:16:21;;;;;;;5.03;3.78;;;;;;;;;;6209678;28;20038;-82
2023/09/06 11:19:29;;;;;;;3.30;3.00;;;;;;;;;;6222170;28;20149;-79
2023/09/06 11:22:32;;;;;;;3.88;3.50;;;;;;;;;;6211429;28;20852;-80
2023/09/06 11:25:34;;;;;;;4.10;3.58;;;;;;;;;;6216972;28;20133;-80
2023/09/06 11:28:38;;;;;;;5.55;3.72;;;;;;;;;;6214899;28;20527;-81
2023/09/06 11:31:39;;;;;;;3.53;3.10;;;;;;;;;;6211058;28;20046;-78
2023/09/06 11:34:43;;;;;;;3.92;3.53;;;;;;;;;;6214760;28;20572;-79
2023/09/06 11:37:50;;;;;;;3.60;3.30;;;;;;;;;;6211961;28;20185;-79
2023/09/06 11:40:52;;;;;;;6.00;3.75;;;;;;;;;;6191589;28;20038;-77
2023/09/06 11:43:58;;;;;;;4.55;3.78;;;;;;;;;;6193039;28;20057;-77
2023/09/06 11:47:00;;;;;;;4.88;3.70;;;;;;;;;;6186962;28;20046;-81
2023/09/06 11:50:05;;;;;;;4.45;3.47;;;;;;;;;;6203476;28;20049;-80
2023/09/06 11:53:09;;;;;;;4.38;3.45;;;;;;;;;;6204080;28;20455;-76
2023/09/06 11:56:13;;;;;;;4.85;3.65;;;;;;;;;;6210435;28;20060;-78
2023/09/06 11:59:17;;;;;;;5.57;3.70;;;;;;;;;;6223529;28;20034;-77
2023/09/06 12:02:21;;;;;;;5.78;3.50;;;;;;;;;;6212309;28;20697;-79
2023/09/06 12:05:24;;;;;;;4.68;3.58;;;;;;;;;;6218301;28;20049;-80
2023/09/06 12:08:43;;;;;;;3.85;3.55;;;;;;;;;;6205896;28;20181;-81
2023/09/06 12:11:45;;;;;;;4.30;3.55;;;;;;;;;;6214428;28;20133;-80
2023/09/06 12:14:47;;;;;;;6.65;3.38;;;;;;;;;;6206425;28;20084;-80
2023/09/06 12:17:50;;;;;;;4.25;3.38;;;;;;;;;;6205784;28;20042;-81
2023/09/06 12:20:52;;;;;;;3.88;3.58;;;;;;;;;;6204632;28;20120;-79
2023/09/06 12:23:53;;;;;;;;;;;;;;;;;;6199864;28;20055;-80
2023/09/06 12:26:56;;;;;;;6.83;3.93;;;;;;;;;;6207821;28;19933;-79
2023/09/06 12:29:58;;;;;;;4.38;3.55;;;;;;;;;;6209859;28;20092;-80
2023/09/06 12:33:00;;;;;;;4.78;3.80;;;;;;;;;;6214215;28;20119;-81
2023/09/06 12:36:05;;;;;;;;;;;;;;;;;;6208598;28;20042;-80
2023/09/06 12:39:06;;;;;;;6.72;3.72;;;;;;;;;;6214569;28;19957;-80
2023/09/06 12:42:08;;;;;;;3.88;3.38;;;;;;;;;;6210740;28;20057;-81
2023/09/06 12:45:36;;;;;;;4.97;3.65;;;;;;;;;;6217603;28;20073;-81
2023/09/06 12:48:38;;;;;;;4.22;3.90;;;;;;;;;;6207567;28;20062;-82
2023/09/06 12:51:44;;;;;;;5.07;3.70;;;;;;;;;;6209520;28;20049;-81
2023/09/06 12:54:46;;;;;;;5.93;3.75;;;;;;;;;;6208728;28;20057;-82
2023/09/06 12:57:50;;;;;;;4.32;3.70;;;;;;;;;;6221051;28;20049;-80
2023/09/06 13:00:53;;;;;;;4.20;3.45;;;;;;;;;;6206912;28;20069;-82
2023/09/06 13:03:55;;;;;;;4.85;3.63;;;;;;;;;;6213404;28;20129;-82
2023/09/06 13:06:57;;;;;;;4.53;3.67;;;;;;;;;;6189741;28;20053;-81
2023/09/06 13:09:58;;;;;;;;;;;;;;;;;;6209465;28;20448;-82
2023/09/06 13:13:00;;;;;;;4.30;3.72;;;;;;;;;;6217818;28;19925;-81
2023/09/06 13:16:04;;;;;;;5.05;3.78;;;;;;;;;;6218842;28;20034;-80
2023/09/06 13:19:06;;;;;;;5.20;3.58;;;;;;;;;;6199995;28;20053;-80
2023/09/06 13:22:08;;;;;;;3.50;3.20;;;;;;;;;;6221937;28;20042;-80
2023/09/06 13:25:11;;;;;;;4.07;3.67;;;;;;;;;;6202481;28;20045;-81
2023/09/06 13:28:13;;;;;;;4.70;3.92;;;;;;;;;;6211632;28;20177;-80
2023/09/06 13:31:14;;;;;;;4.38;3.58;;;;;;;;;;6210109;28;20053;-79
2023/09/06 13:34:17;;;;;;;4.28;3.50;;;;;;;;;;6211045;28;20392;-80
2023/09/06 13:37:19;;;;;;;3.90;3.58;;;;;;;;;;6221151;28;20045;-81
2023/09/06 13:40:22;;;;;;;3.78;3.38;;;;;;;;;;6213502;28;20132;-79
2023/09/06 13:43:23;;;;;;;4.70;3.80;;;;;;;;;;6212780;28;20459;-81
2023/09/06 13:46:25;;;;;;;3.95;3.33;;;;;;;;;;6197439;28;20046;-80
2023/09/06 13:49:27;;;;;;;5.15;3.75;;;;;;;;;;6203720;28;20041;-80
2023/09/06 13:52:28;;;;;;;;;;;;;;;;;;6215531;28;20046;-80
2023/09/06 13:55:31;;;;;;;5.80;3.60;;;;;;;;;;6213609;28;19948;-82
2023/09/06 13:58:35;;;;;;;4.28;3.38;;;;;;;;;;6207222;28;20053;-82
2023/09/06 14:01:37;;;;;;;4.30;3.25;;;;;;;;;;6193699;28;20047;-80
2023/09/06 14:04:39;;;;;;;;;;;;;;;;;;6197900;28;20097;-80
2023/09/06 14:07:44;;;;;;;5.68;3.17;;;;;;;;;;6185399;28;19929;-77
2023/09/06 14:10:50;;;;;;;6.30;3.83;;;;;;;;;;6193821;28;20052;-82
2023/09/06 14:13:53;;;;;;;4.32;3.50;;;;;;;;;;6185480;28;20109;-80
2023/09/06 14:16:55;;;;;;;4.13;3.40;;;;;;;;;;6180397;28;20062;-75
2023/09/06 14:19:58;;;;;;;4.97;3.33;;;;;;;;;;6186954;28;20104;-77
2023/09/06 14:23:00;;;;;;;3.60;3.30;;;;;;;;;;6179395;28;20323;-77
2023/09/06 14:26:02;;;;;;;4.90;3.30;;;;;;;;;;6183425;28;20434;-76
2023/09/06 14:29:04;;;;;;;4.18;3.33;;;;;;;;;;6209026;28;20050;-75
2023/09/06 14:32:06;;;;;;;4.05;3.28;;;;;;;;;;6203262;28;20504;-74
2023/09/06 14:35:08;;;;;;;5.15;3.42;;;;;;;;;;6195072;28;20042;-74
2023/09/06 14:38:12;;;;;;;;;;;;;;;;;;6197858;28;20186;-76
2023/09/06 14:41:14;;;;;;;4.10;3.22;;;;;;;;;;6203491;28;20005;-76
2023/09/06 14:44:17;;;;;;;3.55;2.95;;;;;;;;;;6205182;28;20125;-75
2023/09/06 14:47:19;;;;;;;3.90;3.05;;;;;;;;;;6196627;28;20522;-77
2023/09/06 14:50:22;;;;;;;4.35;3.28;;;;;;;;;;6197319;28;20057;-81
2023/09/06 14:53:24;;;;;;;5.93;3.30;;;;;;;;;;6205302;28;20521;-79
2023/09/06 14:56:25;;;;;;;4.32;2.90;;;;;;;;;;6182694;28;20050;-80
2023/09/06 14:59:27;;;;;;;4.18;3.00;;;;;;;;;;6181759;28;20050;-79
2023/09/06 15:02:29;;;;;;;3.47;3.00;;;;;;;;;;6171029;28;20415;-79
2023/09/06 15:05:31;;;;;;;4.03;3.10;;;;;;;;;;6197635;28;20041;-79
2023/09/06 15:08:34;;;;;;;3.60;2.90;;;;;;;;;;6201076;28;20454;-79
2023/09/06 15:11:35;;;;;;;2.95;2.65;;;;;;;;;;6194266;28;20348;-78
2023/09/06 15:14:37;;;;;;;4.68;2.80;;;;;;;;;;6201185;28;20041;-79
2023/09/06 15:17:39;;;;;;;3.85;2.72;;;;;;;;;;6199239;28;20086;-80
2023/09/06 15:20:41;;;;;;;3.38;2.83;;;;;;;;;;6188844;28;20402;-80
2023/09/06 15:23:47;;;;;;;3.70;2.70;;;;;;;;;;6190601;28;20053;-79
2023/09/06 15:26:48;;;;;;;3.58;2.70;;;;;;;;;;6200188;28;20140;-79
2023/09/06 15:29:50;;;;;;;5.50;3.10;;;;;;;;;;6197875;28;20045;-79
2023/09/06 15:32:52;;;;;;;5.88;3.00;;;;;;;;;;6201428;28;20248;-79
2023/09/06 15:35:54;;;;;;;3.60;3.00;;;;;;;;;;6198149;28;20049;-79
2023/09/06 15:38:56;;;;;;;4.30;2.63;;;;;;;;;;6206940;28;20181;-79
2023/09/06 15:41:58;;;;;;;3.05;2.75;;;;;;;;;;6195829;28;20560;-78
2023/09/06 15:45:00;;;;;;;3.58;3.00;;;;;;;;;;6194335;28;20053;-74
2023/09/06 15:48:03;;;;;;;4.75;3.00;;;;;;;;;;6187626;28;20049;-72
2023/09/06 15:51:05;;;;;;;3.13;2.72;;;;;;;;;;6194438;28;20145;-75
2023/09/06 15:54:08;;;;;;;6.85;3.20;;;;;;;;;;6181321;28;20062;-76
2023/09/06 15:57:10;;;;;;;3.33;2.70;;;;;;;;;;6186815;28;20467;-76
2023/09/06 16:00:12;;;;;;;4.18;3.58;;;;;;;;;;6202142;28;20042;-76
2023/09/06 16:03:31;;;;;;;6.05;3.25;;;;;;;;;;6205103;28;20500;-76
2023/09/06 16:06:33;;;;;;;5.15;3.28;;;;;;;;;;6201531;28;20239;-79
2023/09/06 16:09:37;;;;;;;3.65;3.13;;;;;;;;;;6199108;28;20124;-80
2023/09/06 16:12:40;;;;;;;5.03;3.22;;;;;;;;;;6205441;28;20061;-80
2023/09/06 16:15:41;;;;;;;5.35;4.00;;;;;;;;;;6186922;28;20137;-81
2023/09/06 16:18:52;;;;;;;5.05;2.80;;;;;;;;;;6191949;28;20058;-79
2023/09/06 16:21:54;;;;;;;4.85;3.17;;;;;;;;;;6203293;28;20071;-78
2023/09/06 16:24:56;;;;;;;3.92;3.22;;;;;;;;;;6204116;28;20046;-78
2023/09/06 16:27:59;;;;;;;4.70;3.40;;;;;;;;;;6202123;28;20508;-80
2023/09/06 16:31:00;;;;;;;4.97;3.67;;;;;;;;;;6200177;28;20057;-78
2023/09/06 16:34:04;;;;;;;4.32;3.25;;;;;;;;;;6202712;28;20081;-78
2023/09/06 16:37:05;;;;;;;6.13;3.53;;;;;;;;;;6212440;28;20519;-80
2023/09/06 16:40:11;;;;;;;4.15;3.30;;;;;;;;;;6203372;28;20105;-79
2023/09/06 16:43:15;;;;;;;5.13;3.90;;;;;;;;;;6191200;28;20053;-78
2023/09/06 16:46:16;;;;;;;4.45;3.65;;;;;;;;;;6186641;28;20077;-77
2023/09/06 16:49:18;;;;;;;3.53;3.20;;;;;;;;;;6209556;28;20057;-76
2023/09/06 16:52:20;;;;;;;5.57;3.40;;;;;;;;;;6210988;28;20034;-77
2023/09/06 16:55:22;;;;;;;6.10;3.40;;;;;;;;;;6191533;28;20314;-77
2023/09/06 16:58:23;;;;;;;6.03;4.28;;;;;;;;;;6204868;28;20042;-77
2023/09/06 17:01:25;;;;;;;4.20;3.33;;;;;;;;;;6204262;28;20088;-74
2023/09/06 17:04:27;;;;;;;7.55;4.30;;;;;;;;;;6202456;28;20631;-76
2023/09/06 17:07:29;;;;;;;6.97;3.63;;;;;;;;;;6211364;28;20073;-74
2023/09/06 17:10:34;;;;;;;6.40;3.47;;;;;;;;;;6203238;28;20045;-74
2023/09/06 17:13:36;;;;;;;4.88;3.42;;;;;;;;;;6219588;28;20053;-74
2023/09/06 17:16:38;;;;;;;6.22;3.63;;;;;;;;;;6205251;28;20522;-75
2023/09/06 17:19:40;;;;;;;6.50;3.67;;;;;;;;;;6208421;28;20046;-75
2023/09/06 17:22:45;;;;;;;6.40;3.88;;;;;;;;;;6192476;28;20050;-75
2023/09/06 17:25:49;;;;;;;5.88;4.10;;;;;;;;;;6183624;28;20046;-75
2023/09/06 17:28:51;;;;;;;5.28;4.35;;;;;;;;;;6198575;28;20068;-79
2023/09/06 17:31:54;;;;;;;8.10;4.15;;;;;;;;;;6189744;28;20070;-78
2023/09/06 17:34:56;;;;;;;7.13;4.40;;;;;;;;;;6204604;28;20058;-79
2023/09/06 17:38:05;;;;;;;6.13;4.10;;;;;;;;;;6197652;28;20042;-78
2023/09/06 17:41:08;;;;;;;6.00;4.68;;;;;;;;;;6218940;28;20037;-77
2023/09/06 17:44:11;;;;;;;5.57;4.53;;;;;;;;;;6212672;28;20038;-78
2023/09/06 17:47:13;;;;;;;5.30;4.43;;;;;;;;;;6225613;28;20109;-79
2023/09/06 17:50:18;;;;;;;9.90;5.57;;;;;;;;;;6221898;28;20054;-78
2023/09/06 17:53:25;;;;;;;5.85;4.95;;;;;;;;;;6221761;28;20048;-78
2023/09/06 17:56:29;;;;;;;6.32;5.03;;;;;;;;;;6196651;28;20038;-78
2023/09/06 17:59:30;;;;;;;5.82;4.43;;;;;;;;;;6218891;28;20176;-79
2023/09/06 18:02:32;;;;;;;6.85;4.32;;;;;;;;;;6214961;28;20046;-80
2023/09/06 18:05:34;;;;;;;5.40;3.50;;;;;;;;;;6188703;28;21646;-78
2023/09/06 18:08:41;;;;;;;6.05;3.60;;;;;;;;;;6205989;28;20049;-80
2023/09/06 18:11:43;;;;;;;9.18;3.85;;;;;;;;;;6212930;28;20046;-79
2023/09/06 18:14:47;;;;;;;7.27;4.03;;;;;;;;;;6184197;28;20046;-78
2023/09/06 18:17:51;;;;;;;10.32;5.60;;;;;;;;;;6180731;28;20514;-77
2023/09/06 18:20:55;;;;;;;4.47;3.40;;;;;;;;;;6181790;28;20041;-80
2023/09/06 18:24:03;;;;;;;6.78;3.75;;;;;;;;;;6183132;28;20129;-79
2023/09/06 18:27:06;;;;;;;4.75;3.80;;;;;;;;;;6179277;28;20050;-78